Aérodrome :
LOGIN :

S'inscrire | Disclaimer

   EN    FR    IT 

 










Légende :    VFR   VFR Marginal   IFR   IFR Intensif   IFR Très Intensif
Visi : 
Plafond : 
>= 8 km
>= 3000ft
5 à 8 km
1000 à 3000 ft
1500m à 5 km
500 à 1000 ft
800 à 1500m
200 à 500 ft
< 800m
< 200 ft
Symboles :   Orages  Brouillard  Fortes neiges  Fortes précipitations  Vent > 20 kt
SIGMETs :   Divers  Orages  Givrage  Turbulence  Onde Orograph.  Cendres Volcan.







- Altitude de l'aérodrome : 1475 ft


LSZC - Buochs Stans

DERNIER METAR :
  • 181520Z AUTO 25006KT 9999 TSRA FEW048CB SCT060 BKN110 20/17 Q1015

METARs EXPIRÉS :
  • 181450Z AUTO 24005KT 210V270 9999 -TSRA SCT050CB SCT070 BKN090 24/17 Q1015
  • 181420Z AUTO 28010KT 9999 FEW060CB SCT080 BKN100 26/16 Q1015
  • 181350Z VRB05KT 9999 SCT060 SCT140 27/14 Q1015
  • 181320Z VRB04KT 9999 SCT060 FEW065TCU 28/16 Q1015
  • 181250Z VRB03KT 9999 SCT060 FEW065TCU 28/15 Q1015

TAF TAF LSZC
Valide du 18 à 15h jusqu'au 19 à 00h UTC


181425Z 1815/1824 08005KT 9999 SCT060
TEMPO 1815/1820 SHRA SCT050TCU
PROB40
TEMPO 1815/1818 22015G30KT 4500 TSRA SCT050CB
Pas de NOTAMs connus pour ce terrain.



MET'MAP, la Météo Aéronautique d'un coup d'oeil ! - Copyright ORBIFLY Décembre 2007 - Disclaimer

ORBIFLY MET'MAP TEAM :

Programmation & Développement : Alexandra Zaïnal
Conception & Développement : Baudouin d'Aumeries
Co-Programmation & Développement : Marc-Olivier Méhu
Soutien technique & logistique : Manuel Goepfert

Contact : metmap@orbifly.com




SOURCES & CREDITS :

   NOAA